Stations météo

Publicité
Chateau d´Oex, Suisse (6627): Température de l'air & dewpoint: 06.12.2018 02:00:00 - 12.12.2018 02:00:00 (CET)Chateau d´Oex, Suisse (6627): Température de l'air 5cm: 06.12.2018 02:00:00 - 12.12.2018 02:00:00 (CET)Chateau d´Oex, Suisse (6627): Vitesse du vent & gusts: 06.12.2018 02:00:00 - 12.12.2018 02:00:00 (CET)Chateau d´Oex, Suisse (6627): Direction du vent: 06.12.2018 02:00:00 - 12.12.2018 02:00:00 (CET)Chateau d´Oex, Suisse (6627): visibility: 06.12.2018 02:00:00 - 12.12.2018 02:00:00 (CET)Chateau d´Oex, Suisse (6627): Ensoleillement: 06.12.2018 02:00:00 - 12.12.2018 02:00:00 (CET)Chateau d´Oex, Suisse (6627): Quantités de précipitations: 06.12.2018 02:00:00 - 12.12.2018 02:00:00 (CET)
Date & Time tt [°C] td [°C] tt 5cm [°C] ff [km/h] ff [knt] fx [km/h] fx [knt] dd vv [km] sd [min] rr [mm]
12.12.2018 02:00:00 - - - - - - - - - - -
12.12.2018 01:00:00 -7,6 -9,0 -9,3 1 1 6 4 SW - 0 0,0
12.12.2018 00:00:00 -6,7 -8,2 -8,4 1 1 5 3 SSE - 0 0,0
11.12.2018 23:00:00 -6,1 -7,7 -7,9 1 1 5 3 SE - 0 0,0
11.12.2018 22:00:00 -4,9 -6,8 -6,3 3 2 5 3 W - 0 0,0
11.12.2018 21:00:00 -3,9 -6,2 -5,4 3 2 6 3 W - 0 0,0
11.12.2018 20:00:00 -2,5 -4,8 -2,8 2 1 5 3 WNW - 0 0,0
11.12.2018 19:00:00 -2,0 -4,7 -1,9 3 2 6 4 SSE - 0 0,0
11.12.2018 18:00:00 -1,5 -3,7 -1,6 1 1 5 3 S - 0 0,0
11.12.2018 17:00:00 -1,3 -3,3 -1,1 3 2 5 3 SSE - 0 0,0
11.12.2018 16:00:00 -0,2 -2,6 0,3 1 1 12 7 SSW - 39 0,0
11.12.2018 15:00:00 1,5 -2,8 - 6 3 13 7 SW - 50 0,0
11.12.2018 14:00:00 1,7 -1,9 5,9 6 3 13 7 SSW - 60 0,0
11.12.2018 13:00:00 1,1 -2,4 5,8 7 4 11 6 S - 60 0,0
11.12.2018 12:00:00 0,5 -2,4 5,3 5 3 11 6 S - 60 0,0
11.12.2018 11:00:00 -0,3 -2,1 2,9 3 2 6 3 SE - 58 0,0
11.12.2018 10:00:00 -1,9 -3,1 -3,0 1 1 8 5 NNE - 1 0,0
11.12.2018 09:00:00 -2,1 -3,2 -3,1 4 2 6 3 N - 0 0,0
11.12.2018 08:00:00 -1,1 -2,3 -2,1 2 1 4 2 N - 0 0,0
11.12.2018 07:00:00 -0,9 -1,4 -1,4 0 0 4 2 N - 0 0,0
11.12.2018 06:00:00 -1,0 -1,9 -1,8 3 1 8 4 N - 0 0,1
11.12.2018 05:00:00 -0,5 -0,8 -0,7 3 2 9 5 SSE - 0 0,0
11.12.2018 04:00:00 -0,3 -0,6 -0,9 2 1 7 4 SE - 0 0,1
11.12.2018 03:00:00 0,2 -0,7 -0,3 2 1 14 7 SE - 0 0,1
11.12.2018 02:00:00 0,3 -0,3 -0,1 5 3 26 14 WSW - 0 0,0
11.12.2018 01:00:00 0,5 -0,3 -0,1 10 5 23 13 W - 0 0,3
11.12.2018 00:00:00 0,0 -0,2 -0,1 7 4 13 7 SSW - 0 0,4
10.12.2018 23:00:00 0,5 -0,6 0,1 2 1 22 12 N - 0 0,1
10.12.2018 22:00:00 0,7 -0,6 0,2 6 4 15 8 WSW - 0 0,0
10.12.2018 21:00:00 0,5 0,0 0,3 4 2 16 9 S - 0 0,0
10.12.2018 20:00:00 0,8 -0,1 0,1 6 3 31 17 WSW - 0 0,1
10.12.2018 19:00:00 1,5 -0,4 0,8 11 6 30 16 SW - 0 0,0
10.12.2018 18:00:00 1,5 -0,1 0,6 13 7 25 14 S - 0 0,0
10.12.2018 17:00:00 2,1 -0,7 1,4 11 6 21 12 SSW - 0 0,0
10.12.2018 16:00:00 2,7 -1,2 2,7 14 8 29 15 SSW - 0 0,0
10.12.2018 15:00:00 2,4 -0,7 2,4 14 8 26 14 SSW - 0 0,0
10.12.2018 14:00:00 2,6 -0,8 2,5 15 8 33 18 SSW - 2 0,0
10.12.2018 13:00:00 2,7 0,1 3,3 13 7 30 16 SSW - 0 0,0
10.12.2018 12:00:00 1,2 -0,1 1,0 11 6 27 15 W - 0 0,0
10.12.2018 11:00:00 1,3 0,0 0,6 9 5 32 18 SW - 0 0,3
10.12.2018 10:00:00 0,9 -0,1 0,5 11 6 28 15 WSW - 0 0,0
10.12.2018 09:00:00 1,3 -0,8 0,8 11 6 34 18 W - 0 0,0
10.12.2018 08:00:00 1,5 -1,1 0,8 19 11 47 26 SSW - 0 0,0
10.12.2018 07:00:00 1,6 -0,8 0,1 14 7 30 16 SW - 0 0,2
10.12.2018 06:00:00 0,4 0,0 0,0 3 2 16 8 SSE - 0 0,4
10.12.2018 05:00:00 0,9 -0,2 0,4 6 3 34 18 SSW - 0 0,1
10.12.2018 04:00:00 2,1 -1,8 0,4 18 10 47 25 SSW - 0 0,1
10.12.2018 03:00:00 1,2 0,3 0,3 8 5 19 10 SW - 0 1,7
10.12.2018 02:00:00 1,1 0,5 0,8 7 4 20 11 SE - 0 0,0
10.12.2018 01:00:00 1,6 0,6 1,1 9 5 42 23 WSW - 0 1,1
10.12.2018 00:00:00 2,6 0,8 1,7 25 14 46 25 S - 0 0,8
09.12.2018 23:00:00 2,0 1,5 1,6 9 5 33 18 SSW - 0 1,6
09.12.2018 22:00:00 2,2 1,4 1,6 7 4 21 12 S - 0 1,6
09.12.2018 21:00:00 2,0 1,5 1,5 12 7 31 17 SSW - 0 1,5
09.12.2018 20:00:00 2,8 0,8 1,7 13 7 29 16 SSW - 0 1,4
09.12.2018 19:00:00 2,0 0,5 1,4 19 10 48 26 SSW - 0 1,6
09.12.2018 18:00:00 3,2 0,5 1,8 19 10 42 23 S - 0 0,8
09.12.2018 17:00:00 3,0 0,3 1,5 14 8 43 23 SSW - 0 1,0
09.12.2018 16:00:00 2,5 0,6 1,6 12 6 46 25 S - 0 1,3
09.12.2018 15:00:00 3,1 -0,4 1,8 16 9 54 29 SW - 0 0,4
09.12.2018 14:00:00 2,4 0,1 1,4 18 10 54 29 SW - 0 0,6
09.12.2018 13:00:00 3,3 -1,5 2,3 24 13 54 29 SW - 0 0,3
09.12.2018 12:00:00 2,3 -1,1 0,4 14 7 44 24 SW - 0 1,1
09.12.2018 11:00:00 0,4 0,3 0,0 8 4 26 14 SW - 0 2,9
09.12.2018 10:00:00 3,2 0,8 2,2 9 5 42 23 SW - 0 1,4
09.12.2018 09:00:00 4,1 0,1 3,2 21 11 82 45 SSW - 0 0,4
09.12.2018 08:00:00 4,8 1,7 3,1 39 21 89 48 SW - 0 3,2
09.12.2018 07:00:00 5,4 0,8 3,2 37 20 87 47 WSW - 0 0,6
09.12.2018 06:00:00 7,0 -0,4 5,9 39 21 122 66 SW - 0 0,4
09.12.2018 05:00:00 6,1 1,7 4,0 37 20 98 53 WSW - 0 2,1
09.12.2018 04:00:00 5,7 2,5 4,1 11 6 68 37 SSW - 0 0,8
09.12.2018 03:00:00 6,6 1,2 4,8 23 12 52 28 W - 0 0,0
09.12.2018 02:00:00 7,4 0,8 5,9 24 13 65 35 WSW - 0 0,1
09.12.2018 01:00:00 6,9 1,5 4,4 14 8 31 17 SSW - 0 0,0
09.12.2018 00:00:00 3,8 2,5 3,1 4 2 13 7 N - 0 0,1
08.12.2018 23:00:00 3,9 1,8 2,7 6 3 16 9 NNE - 0 0,3
08.12.2018 22:00:00 4,0 1,4 2,8 7 4 14 8 W - 0 0,1
08.12.2018 21:00:00 3,9 0,6 2,8 4 2 14 8 NW - 0 0,0
08.12.2018 20:00:00 3,5 0,6 2,3 5 3 15 8 W - 0 0,0
08.12.2018 19:00:00 3,0 0,7 2,1 8 5 20 11 SW - 0 0,0
08.12.2018 18:00:00 3,2 0,3 2,0 4 2 38 20 S - 0 0,1
08.12.2018 17:00:00 3,7 -0,5 1,9 8 4 32 17 SSW - 0 0,0
08.12.2018 16:00:00 2,6 0,1 1,6 2 1 17 9 N - 0 0,2
08.12.2018 15:00:00 3,0 -0,8 2,4 6 3 23 13 W - 0 0,0
08.12.2018 14:00:00 3,1 -0,9 2,8 7 4 23 12 WSW - 0 0,1
08.12.2018 13:00:00 3,0 -1,5 2,5 13 7 41 22 SW - 0 0,0
08.12.2018 12:00:00 2,7 -1,9 2,2 11 6 31 17 SW - 0 0,1
08.12.2018 11:00:00 1,8 -1,5 1,0 4 2 25 14 SSW - 0 0,0
08.12.2018 10:00:00 2,0 -2,6 1,2 5 3 20 11 W - 0 0,2
08.12.2018 09:00:00 1,3 -2,4 0,7 6 3 16 9 W - 0 0,0
08.12.2018 08:00:00 1,1 -2,5 0,5 4 2 26 14 W - 0 0,1
08.12.2018 07:00:00 1,5 -3,1 0,5 6 3 24 13 WNW - 0 0,0
08.12.2018 06:00:00 1,4 -3,0 0,7 10 6 34 18 WSW - 0 0,0
08.12.2018 05:00:00 2,1 -4,2 1,1 14 7 45 25 SW - 0 0,0
08.12.2018 04:00:00 2,0 -2,9 0,7 6 3 35 19 SW - 0 0,0
08.12.2018 03:00:00 1,8 -1,9 0,1 7 4 32 17 WSW - 0 0,5
08.12.2018 02:00:00 1,3 -0,9 0,4 10 5 24 13 WSW - 0 0,8
08.12.2018 01:00:00 1,6 0,0 0,6 12 7 37 20 SW - 0 1,1
08.12.2018 00:00:00 2,5 -0,1 1,0 12 6 32 17 SSW - 0 2,0
07.12.2018 23:00:00 2,4 0,9 1,8 14 8 59 32 SSW - 0 2,6
07.12.2018 22:00:00 5,0 2,2 3,6 29 16 84 45 SW - 0 3,0
07.12.2018 21:00:00 5,5 3,6 4,5 10 6 20 11 W - 0 1,9
07.12.2018 20:00:00 5,9 3,9 4,9 7 4 52 28 S - 0 2,7
07.12.2018 19:00:00 8,6 1,2 6,2 26 14 74 40 WNW - 0 0,0
07.12.2018 18:00:00 9,5 -0,4 5,0 2 1 13 7 ENE - 0 0,0
07.12.2018 17:00:00 6,6 3,1 4,4 2 1 10 5 ENE - 9 0,0
07.12.2018 16:00:00 7,7 4,6 8,1 6 3 10 6 N - 55 0,0
07.12.2018 15:00:00 9,7 4,7 11,8 3 2 11 6 S - 60 0,0
07.12.2018 14:00:00 9,7 4,8 12,8 4 2 18 10 W - 60 0,0
07.12.2018 13:00:00 8,3 5,1 11,6 4 2 11 6 SSW 60 60 0,0
07.12.2018 12:00:00 7,6 5,4 9,8 2 1 6 4 SSW - 41 0,0
07.12.2018 11:00:00 4,4 3,7 5,0 2 1 6 3 SSE - 3 0,0
07.12.2018 10:00:00 3,5 3,0 4,6 3 1 6 4 SSW - 0 0,0
07.12.2018 09:00:00 3,1 2,5 2,8 3 2 7 4 NW - 0 0,0
07.12.2018 08:00:00 3,2 2,5 1,9 6 3 9 5 N - 0 0,0
07.12.2018 07:00:00 2,0 1,8 0,1 0 0 6 3 ESE - 0 0,0
07.12.2018 06:00:00 2,2 1,7 0,4 4 2 8 5 N - 0 0,0
07.12.2018 05:00:00 2,0 1,7 0,4 1 0 8 4 NNE - 0 0,0
07.12.2018 04:00:00 2,5 2,1 0,8 5 3 9 5 N - 0 0,0
07.12.2018 03:00:00 3,3 2,8 2,5 1 0 8 4 SSE - 0 0,0
07.12.2018 02:00:00 2,4 2,3 2,3 2 1 5 3 SSW - 0 0,0
07.12.2018 01:00:00 3,5 2,9 2,3 1 0 5 3 NE - 0 0,0
07.12.2018 00:00:00 3,4 2,9 2,4 3 2 6 4 NNE - 0 0,0
06.12.2018 23:00:00 2,6 2,3 1,9 1 1 5 3 SSW - 0 0,0
06.12.2018 22:00:00 2,2 2,0 1,5 2 1 8 4 SSE - 0 0,0
06.12.2018 21:00:00 3,3 2,8 1,6 2 1 9 5 ESE - 0 0,0
06.12.2018 20:00:00 2,8 2,5 1,3 1 1 7 4 WSW - 0 0,0
06.12.2018 19:00:00 3,3 3,1 2,0 6 3 10 5 ENE - 0 0,0
06.12.2018 18:00:00 3,6 3,2 2,2 4 2 8 5 N - 0 0,0
06.12.2018 17:00:00 4,8 4,3 3,5 4 2 6 4 N - 10 0,0
06.12.2018 16:00:00 7,3 5,6 8,9 6 3 9 5 SE - 60 0,0
06.12.2018 15:00:00 7,8 6,3 10,7 5 3 9 5 S - 46 0,0
06.12.2018 14:00:00 6,8 5,7 7,7 1 0 6 3 S - 0 0,0
06.12.2018 13:00:00 6,6 5,5 7,1 1 1 7 4 S - 0 0,0
06.12.2018 12:00:00 5,9 5,7 6,4 3 2 6 4 SE - 0 0,3
06.12.2018 11:00:00 5,7 5,2 6,1 1 1 5 3 W - 0 0,2
06.12.2018 10:00:00 5,2 4,9 5,2 0 0 10 6 W - 0 0,4
06.12.2018 09:00:00 5,0 4,7 4,8 0 0 5 3 E - 0 1,0
06.12.2018 08:00:00 4,9 4,7 4,5 0 0 8 4 WNW - 0 0,6
06.12.2018 07:00:00 5,5 4,2 4,7 3 1 9 5 ESE - 0 1,0
06.12.2018 06:00:00 5,7 4,9 5,0 3 2 8 4 NE - 0 1,9
06.12.2018 05:00:00 5,4 4,4 4,8 1 1 9 5 NW - 0 0,0
06.12.2018 04:00:00 7,6 3,1 5,5 10 5 29 15 NW - 0 0,5
06.12.2018 03:00:00 8,4 3,0 6,8 18 10 37 20 W - 0 0,1
06.12.2018 02:00:00 5,9 3,2 4,9 4 2 17 9 W - 0 0,0

tt = Température de l'air
td = dewpoint
tt 5cm = Température de l'air 5cm
ff = Vitesse du vent
fx = gusts
dd = Direction du vent
vv = visibility
sd = Ensoleillement
rr = Quantités de précipitations

stations d'obs. à proximité